sensor_id;sensor_type;location;lat;lon;timestamp;P1;durP1;ratioP1;P2;durP2;ratioP2
19347;SDS011;9810;52.480;9.806;2023-04-06T00:01:07;13.97;;;9.90;;
19347;SDS011;9810;52.480;9.806;2023-04-06T00:03:35;14.03;;;9.30;;
19347;SDS011;9810;52.480;9.806;2023-04-06T00:06:03;16.03;;;9.70;;
19347;SDS011;9810;52.480;9.806;2023-04-06T00:08:31;10.53;;;7.70;;
19347;SDS011;9810;52.480;9.806;2023-04-06T00:10:58;13.97;;;10.17;;
19347;SDS011;9810;52.480;9.806;2023-04-06T00:13:25;13.60;;;7.73;;
19347;SDS011;9810;52.480;9.806;2023-04-06T00:15:53;13.43;;;9.37;;
19347;SDS011;9810;52.480;9.806;2023-04-06T00:18:22;11.43;;;7.80;;
19347;SDS011;9810;52.480;9.806;2023-04-06T00:20:49;12.13;;;9.17;;
19347;SDS011;9810;52.480;9.806;2023-04-06T00:23:17;12.73;;;8.97;;
19347;SDS011;9810;52.480;9.806;2023-04-06T00:25:45;15.48;;;10.48;;
19347;SDS011;9810;52.480;9.806;2023-04-06T00:28:12;9.77;;;7.23;;
19347;SDS011;9810;52.480;9.806;2023-04-06T00:30:40;20.30;;;9.10;;
19347;SDS011;9810;52.480;9.806;2023-04-06T00:33:07;17.65;;;11.32;;
19347;SDS011;9810;52.480;9.806;2023-04-06T00:35:37;14.10;;;9.27;;
19347;SDS011;9810;52.480;9.806;2023-04-06T00:38:04;15.73;;;9.83;;
19347;SDS011;9810;52.480;9.806;2023-04-06T00:40:31;16.10;;;10.20;;
19347;SDS011;9810;52.480;9.806;2023-04-06T00:43:00;13.67;;;9.37;;
19347;SDS011;9810;52.480;9.806;2023-04-06T00:45:27;16.40;;;10.13;;
19347;SDS011;9810;52.480;9.806;2023-04-06T00:47:55;14.60;;;9.67;;
19347;SDS011;9810;52.480;9.806;2023-04-06T00:50:23;11.17;;;8.60;;
19347;SDS011;9810;52.480;9.806;2023-04-06T00:52:53;12.47;;;8.90;;
19347;SDS011;9810;52.480;9.806;2023-04-06T00:55:21;15.07;;;10.10;;
19347;SDS011;9810;52.480;9.806;2023-04-06T00:57:49;13.53;;;9.17;;
19347;SDS011;9810;52.480;9.806;2023-04-06T01:00:16;15.00;;;9.53;;
19347;SDS011;9810;52.480;9.806;2023-04-06T01:02:44;17.77;;;10.57;;
19347;SDS011;9810;52.480;9.806;2023-04-06T01:05:13;15.70;;;9.80;;
19347;SDS011;9810;52.480;9.806;2023-04-06T01:07:40;13.10;;;9.70;;
19347;SDS011;9810;52.480;9.806;2023-04-06T01:10:10;14.93;;;10.33;;
19347;SDS011;9810;52.480;9.806;2023-04-06T01:12:37;15.73;;;10.23;;
19347;SDS011;9810;52.480;9.806;2023-04-06T01:15:05;14.43;;;9.73;;
19347;SDS011;9810;52.480;9.806;2023-04-06T01:17:35;16.30;;;10.10;;
19347;SDS011;9810;52.480;9.806;2023-04-06T01:20:03;17.10;;;10.00;;
19347;SDS011;9810;52.480;9.806;2023-04-06T01:22:33;12.53;;;9.47;;
19347;SDS011;9810;52.480;9.806;2023-04-06T01:25:00;12.83;;;8.93;;
19347;SDS011;9810;52.480;9.806;2023-04-06T01:27:27;13.03;;;10.33;;
19347;SDS011;9810;52.480;9.806;2023-04-06T01:29:55;17.80;;;10.13;;
19347;SDS011;9810;52.480;9.806;2023-04-06T01:32:23;15.97;;;9.93;;
19347;SDS011;9810;52.480;9.806;2023-04-06T01:34:50;14.63;;;9.57;;
19347;SDS011;9810;52.480;9.806;2023-04-06T01:37:18;15.03;;;10.17;;
19347;SDS011;9810;52.480;9.806;2023-04-06T01:39:47;15.20;;;9.93;;
19347;SDS011;9810;52.480;9.806;2023-04-06T01:42:14;14.53;;;9.57;;
19347;SDS011;9810;52.480;9.806;2023-04-06T01:44:42;14.63;;;10.60;;
19347;SDS011;9810;52.480;9.806;2023-04-06T01:47:09;16.73;;;10.07;;
19347;SDS011;9810;52.480;9.806;2023-04-06T01:49:37;12.57;;;9.73;;
19347;SDS011;9810;52.480;9.806;2023-04-06T01:52:04;15.57;;;9.27;;
19347;SDS011;9810;52.480;9.806;2023-04-06T01:54:32;13.53;;;9.00;;
19347;SDS011;9810;52.480;9.806;2023-04-06T01:57:01;12.97;;;9.10;;
19347;SDS011;9810;52.480;9.806;2023-04-06T01:59:28;16.30;;;9.27;;
19347;SDS011;9810;52.480;9.806;2023-04-06T02:01:56;13.83;;;9.10;;
19347;SDS011;9810;52.480;9.806;2023-04-06T02:04:23;15.50;;;10.20;;
19347;SDS011;9810;52.480;9.806;2023-04-06T02:06:51;17.60;;;10.00;;
19347;SDS011;9810;52.480;9.806;2023-04-06T02:09:18;13.50;;;9.20;;
19347;SDS011;9810;52.480;9.806;2023-04-06T02:11:46;14.17;;;9.30;;
19347;SDS011;9810;52.480;9.806;2023-04-06T02:14:15;15.20;;;9.03;;
19347;SDS011;9810;52.480;9.806;2023-04-06T02:16:42;17.10;;;9.80;;
19347;SDS011;9810;52.480;9.806;2023-04-06T02:19:09;16.17;;;10.50;;
19347;SDS011;9810;52.480;9.806;2023-04-06T02:21:37;15.77;;;10.50;;
19347;SDS011;9810;52.480;9.806;2023-04-06T02:24:05;15.10;;;9.20;;
19347;SDS011;9810;52.480;9.806;2023-04-06T02:26:32;16.13;;;9.83;;
19347;SDS011;9810;52.480;9.806;2023-04-06T02:29:00;14.77;;;10.37;;
19347;SDS011;9810;52.480;9.806;2023-04-06T02:31:29;15.47;;;9.67;;
19347;SDS011;9810;52.480;9.806;2023-04-06T02:33:56;19.77;;;10.37;;
19347;SDS011;9810;52.480;9.806;2023-04-06T02:36:24;13.70;;;9.53;;
19347;SDS011;9810;52.480;9.806;2023-04-06T02:38:51;17.83;;;10.50;;
19347;SDS011;9810;52.480;9.806;2023-04-06T02:41:19;15.33;;;9.90;;
19347;SDS011;9810;52.480;9.806;2023-04-06T02:43:46;15.17;;;10.20;;
19347;SDS011;9810;52.480;9.806;2023-04-06T02:46:14;17.60;;;9.47;;
19347;SDS011;9810;52.480;9.806;2023-04-06T02:48:43;13.87;;;9.17;;
19347;SDS011;9810;52.480;9.806;2023-04-06T02:51:10;17.30;;;11.17;;
19347;SDS011;9810;52.480;9.806;2023-04-06T02:53:38;13.57;;;9.53;;
19347;SDS011;9810;52.480;9.806;2023-04-06T02:56:05;16.70;;;9.97;;
19347;SDS011;9810;52.480;9.806;2023-04-06T02:58:33;12.50;;;8.90;;
19347;SDS011;9810;52.480;9.806;2023-04-06T03:01:00;12.90;;;9.30;;
19347;SDS011;9810;52.480;9.806;2023-04-06T03:03:28;13.33;;;8.50;;
19347;SDS011;9810;52.480;9.806;2023-04-06T03:05:57;14.83;;;9.57;;
19347;SDS011;9810;52.480;9.806;2023-04-06T03:08:25;21.13;;;10.23;;
19347;SDS011;9810;52.480;9.806;2023-04-06T03:10:52;14.40;;;9.47;;
19347;SDS011;9810;52.480;9.806;2023-04-06T03:13:20;16.30;;;8.73;;
19347;SDS011;9810;52.480;9.806;2023-04-06T03:15:47;16.53;;;9.90;;
19347;SDS011;9810;52.480;9.806;2023-04-06T03:18:15;16.50;;;9.77;;
19347;SDS011;9810;52.480;9.806;2023-04-06T03:20:44;15.67;;;9.50;;
19347;SDS011;9810;52.480;9.806;2023-04-06T03:23:13;13.83;;;9.77;;
19347;SDS011;9810;52.480;9.806;2023-04-06T03:25:41;15.17;;;10.03;;
19347;SDS011;9810;52.480;9.806;2023-04-06T03:28:08;17.52;;;11.13;;
19347;SDS011;9810;52.480;9.806;2023-04-06T03:30:36;15.70;;;9.97;;
19347;SDS011;9810;52.480;9.806;2023-04-06T03:33:03;15.47;;;10.13;;
19347;SDS011;9810;52.480;9.806;2023-04-06T03:35:31;17.07;;;9.00;;
19347;SDS011;9810;52.480;9.806;2023-04-06T03:37:58;19.97;;;10.97;;
19347;SDS011;9810;52.480;9.806;2023-04-06T03:40:27;25.30;;;10.83;;
19347;SDS011;9810;52.480;9.806;2023-04-06T03:42:55;17.90;;;9.47;;
19347;SDS011;9810;52.480;9.806;2023-04-06T03:45:22;16.87;;;8.30;;
19347;SDS011;9810;52.480;9.806;2023-04-06T03:47:50;17.20;;;9.00;;
19347;SDS011;9810;52.480;9.806;2023-04-06T03:50:17;16.13;;;9.03;;
19347;SDS011;9810;52.480;9.806;2023-04-06T03:52:45;15.73;;;8.40;;
19347;SDS011;9810;52.480;9.806;2023-04-06T03:55:12;14.13;;;8.63;;
19347;SDS011;9810;52.480;9.806;2023-04-06T03:57:41;16.33;;;8.10;;
19347;SDS011;9810;52.480;9.806;2023-04-06T04:00:09;27.30;;;11.37;;
19347;SDS011;9810;52.480;9.806;2023-04-06T04:02:38;15.50;;;9.53;;
19347;SDS011;9810;52.480;9.806;2023-04-06T04:05:06;17.13;;;9.23;;
19347;SDS011;9810;52.480;9.806;2023-04-06T04:07:33;13.87;;;8.33;;
19347;SDS011;9810;52.480;9.806;2023-04-06T04:10:01;12.40;;;9.10;;
19347;SDS011;9810;52.480;9.806;2023-04-06T04:12:28;15.13;;;8.17;;
19347;SDS011;9810;52.480;9.806;2023-04-06T04:14:58;15.17;;;8.70;;
19347;SDS011;9810;52.480;9.806;2023-04-06T04:17:25;18.67;;;8.77;;
19347;SDS011;9810;52.480;9.806;2023-04-06T04:19:52;13.67;;;8.50;;
19347;SDS011;9810;52.480;9.806;2023-04-06T04:22:20;13.17;;;7.53;;
19347;SDS011;9810;52.480;9.806;2023-04-06T04:24:48;20.90;;;10.60;;
19347;SDS011;9810;52.480;9.806;2023-04-06T04:27:15;15.20;;;8.53;;
19347;SDS011;9810;52.480;9.806;2023-04-06T04:29:42;12.40;;;7.80;;
19347;SDS011;9810;52.480;9.806;2023-04-06T04:32:12;14.67;;;8.53;;
19347;SDS011;9810;52.480;9.806;2023-04-06T04:34:39;16.93;;;8.13;;
19347;SDS011;9810;52.480;9.806;2023-04-06T04:37:07;15.60;;;8.40;;
19347;SDS011;9810;52.480;9.806;2023-04-06T04:39:34;13.17;;;8.17;;
19347;SDS011;9810;52.480;9.806;2023-04-06T04:42:02;9.13;;;6.80;;
19347;SDS011;9810;52.480;9.806;2023-04-06T04:44:29;13.83;;;7.63;;
19347;SDS011;9810;52.480;9.806;2023-04-06T04:46:57;13.57;;;7.80;;
19347;SDS011;9810;52.480;9.806;2023-04-06T04:49:26;17.23;;;7.97;;
19347;SDS011;9810;52.480;9.806;2023-04-06T04:51:53;13.23;;;7.17;;
19347;SDS011;9810;52.480;9.806;2023-04-06T04:54:21;12.37;;;7.20;;
19347;SDS011;9810;52.480;9.806;2023-04-06T04:56:48;13.67;;;7.53;;
19347;SDS011;9810;52.480;9.806;2023-04-06T04:59:17;15.97;;;7.30;;
19347;SDS011;9810;52.480;9.806;2023-04-06T05:01:44;10.57;;;6.60;;
19347;SDS011;9810;52.480;9.806;2023-04-06T05:04:11;10.73;;;7.03;;
19347;SDS011;9810;52.480;9.806;2023-04-06T05:06:41;10.63;;;6.17;;
19347;SDS011;9810;52.480;9.806;2023-04-06T05:09:08;10.17;;;7.00;;
19347;SDS011;9810;52.480;9.806;2023-04-06T05:11:35;8.67;;;6.03;;
19347;SDS011;9810;52.480;9.806;2023-04-06T05:14:03;10.17;;;6.07;;
19347;SDS011;9810;52.480;9.806;2023-04-06T05:16:31;12.03;;;7.27;;
19347;SDS011;9810;52.480;9.806;2023-04-06T05:18:59;12.47;;;6.73;;
19347;SDS011;9810;52.480;9.806;2023-04-06T05:21:27;13.77;;;6.47;;
19347;SDS011;9810;52.480;9.806;2023-04-06T05:23:56;11.57;;;6.83;;
19347;SDS011;9810;52.480;9.806;2023-04-06T05:26:24;12.70;;;6.63;;
19347;SDS011;9810;52.480;9.806;2023-04-06T05:28:51;10.53;;;6.80;;
19347;SDS011;9810;52.480;9.806;2023-04-06T05:31:19;14.63;;;6.67;;
19347;SDS011;9810;52.480;9.806;2023-04-06T05:33:47;8.73;;;6.10;;
19347;SDS011;9810;52.480;9.806;2023-04-06T05:36:14;11.60;;;5.90;;
19347;SDS011;9810;52.480;9.806;2023-04-06T05:38:42;8.43;;;5.90;;
19347;SDS011;9810;52.480;9.806;2023-04-06T05:41:11;10.97;;;6.27;;
19347;SDS011;9810;52.480;9.806;2023-04-06T05:43:38;9.93;;;5.70;;
19347;SDS011;9810;52.480;9.806;2023-04-06T05:46:06;12.63;;;7.07;;
19347;SDS011;9810;52.480;9.806;2023-04-06T05:48:34;10.87;;;6.43;;
19347;SDS011;9810;52.480;9.806;2023-04-06T05:51:01;9.33;;;6.80;;
19347;SDS011;9810;52.480;9.806;2023-04-06T05:53:31;11.93;;;7.43;;
19347;SDS011;9810;52.480;9.806;2023-04-06T05:56:00;15.07;;;7.13;;
19347;SDS011;9810;52.480;9.806;2023-04-06T05:58:29;15.37;;;6.90;;
19347;SDS011;9810;52.480;9.806;2023-04-06T06:00:57;12.20;;;6.63;;
19347;SDS011;9810;52.480;9.806;2023-04-06T06:03:25;9.50;;;6.53;;
19347;SDS011;9810;52.480;9.806;2023-04-06T06:05:52;11.47;;;7.20;;
19347;SDS011;9810;52.480;9.806;2023-04-06T06:08:19;9.90;;;6.23;;
19347;SDS011;9810;52.480;9.806;2023-04-06T06:10:47;10.13;;;6.30;;
19347;SDS011;9810;52.480;9.806;2023-04-06T06:13:14;8.33;;;5.80;;
19347;SDS011;9810;52.480;9.806;2023-04-06T06:15:44;13.77;;;6.70;;
19347;SDS011;9810;52.480;9.806;2023-04-06T06:18:11;10.93;;;7.03;;
19347;SDS011;9810;52.480;9.806;2023-04-06T06:20:39;9.00;;;6.37;;
19347;SDS011;9810;52.480;9.806;2023-04-06T06:23:06;9.57;;;5.53;;
19347;SDS011;9810;52.480;9.806;2023-04-06T06:25:33;13.53;;;6.73;;
19347;SDS011;9810;52.480;9.806;2023-04-06T06:28:01;10.63;;;7.10;;
19347;SDS011;9810;52.480;9.806;2023-04-06T06:30:28;11.27;;;6.23;;
19347;SDS011;9810;52.480;9.806;2023-04-06T06:32:58;12.90;;;6.50;;
19347;SDS011;9810;52.480;9.806;2023-04-06T06:35:25;10.90;;;6.07;;
19347;SDS011;9810;52.480;9.806;2023-04-06T06:37:53;8.33;;;5.60;;
19347;SDS011;9810;52.480;9.806;2023-04-06T06:40:20;8.33;;;5.70;;
19347;SDS011;9810;52.480;9.806;2023-04-06T06:42:49;8.20;;;5.80;;
19347;SDS011;9810;52.480;9.806;2023-04-06T06:45:17;8.77;;;5.70;;
19347;SDS011;9810;52.480;9.806;2023-04-06T06:47:45;12.20;;;5.80;;
19347;SDS011;9810;52.480;9.806;2023-04-06T06:50:14;11.57;;;5.90;;
19347;SDS011;9810;52.480;9.806;2023-04-06T06:52:42;9.07;;;5.10;;
19347;SDS011;9810;52.480;9.806;2023-04-06T06:55:10;10.33;;;6.70;;
19347;SDS011;9810;52.480;9.806;2023-04-06T06:57:37;12.37;;;6.37;;
19347;SDS011;9810;52.480;9.806;2023-04-06T07:00:07;11.20;;;6.00;;
19347;SDS011;9810;52.480;9.806;2023-04-06T07:02:36;8.90;;;5.80;;
19347;SDS011;9810;52.480;9.806;2023-04-06T07:05:03;12.73;;;6.73;;
19347;SDS011;9810;52.480;9.806;2023-04-06T07:07:33;9.13;;;5.23;;
19347;SDS011;9810;52.480;9.806;2023-04-06T07:10:01;8.53;;;5.67;;
19347;SDS011;9810;52.480;9.806;2023-04-06T07:12:28;8.57;;;5.33;;
19347;SDS011;9810;52.480;9.806;2023-04-06T07:14:55;9.37;;;5.40;;
19347;SDS011;9810;52.480;9.806;2023-04-06T07:17:23;9.87;;;5.67;;
19347;SDS011;9810;52.480;9.806;2023-04-06T07:19:50;8.20;;;5.47;;
19347;SDS011;9810;52.480;9.806;2023-04-06T07:22:18;8.57;;;5.50;;
19347;SDS011;9810;52.480;9.806;2023-04-06T07:24:47;7.10;;;4.53;;
19347;SDS011;9810;52.480;9.806;2023-04-06T07:27:14;10.17;;;5.50;;
19347;SDS011;9810;52.480;9.806;2023-04-06T07:29:42;9.33;;;5.40;;
19347;SDS011;9810;52.480;9.806;2023-04-06T07:32:09;9.57;;;4.93;;
19347;SDS011;9810;52.480;9.806;2023-04-06T07:34:37;6.40;;;4.33;;
19347;SDS011;9810;52.480;9.806;2023-04-06T07:37:04;7.80;;;5.00;;
19347;SDS011;9810;52.480;9.806;2023-04-06T07:39:32;6.03;;;4.77;;
19347;SDS011;9810;52.480;9.806;2023-04-06T07:42:02;6.93;;;4.57;;
19347;SDS011;9810;52.480;9.806;2023-04-06T07:44:29;8.80;;;4.67;;
19347;SDS011;9810;52.480;9.806;2023-04-06T07:46:57;8.73;;;5.30;;
19347;SDS011;9810;52.480;9.806;2023-04-06T07:49:24;7.90;;;4.83;;
19347;SDS011;9810;52.480;9.806;2023-04-06T07:51:52;5.77;;;4.43;;
19347;SDS011;9810;52.480;9.806;2023-04-06T07:54:19;7.27;;;4.27;;
19347;SDS011;9810;52.480;9.806;2023-04-06T07:56:47;5.03;;;4.07;;
19347;SDS011;9810;52.480;9.806;2023-04-06T07:59:16;5.20;;;4.00;;
19347;SDS011;9810;52.480;9.806;2023-04-06T08:01:43;5.13;;;4.03;;
19347;SDS011;9810;52.480;9.806;2023-04-06T08:04:11;9.13;;;4.40;;
19347;SDS011;9810;52.480;9.806;2023-04-06T08:06:38;5.35;;;4.32;;
19347;SDS011;9810;52.480;9.806;2023-04-06T08:09:06;6.47;;;4.43;;
19347;SDS011;9810;52.480;9.806;2023-04-06T08:11:33;6.20;;;4.55;;
19347;SDS011;9810;52.480;9.806;2023-04-06T08:14:01;4.20;;;3.80;;
19347;SDS011;9810;52.480;9.806;2023-04-06T08:16:30;4.95;;;4.47;;
19347;SDS011;9810;52.480;9.806;2023-04-06T08:18:57;6.95;;;4.88;;
19347;SDS011;9810;52.480;9.806;2023-04-06T08:21:25;5.95;;;4.70;;
19347;SDS011;9810;52.480;9.806;2023-04-06T08:23:52;6.60;;;5.00;;
19347;SDS011;9810;52.480;9.806;2023-04-06T08:26:20;8.25;;;4.15;;
19347;SDS011;9810;52.480;9.806;2023-04-06T08:28:47;6.32;;;4.13;;
19347;SDS011;9810;52.480;9.806;2023-04-06T08:31:15;4.95;;;4.45;;
19347;SDS011;9810;52.480;9.806;2023-04-06T08:33:44;7.03;;;4.63;;
19347;SDS011;9810;52.480;9.806;2023-04-06T08:36:12;5.13;;;4.63;;
19347;SDS011;9810;52.480;9.806;2023-04-06T08:38:41;6.68;;;4.68;;
19347;SDS011;9810;52.480;9.806;2023-04-06T08:41:09;7.82;;;4.07;;
19347;SDS011;9810;52.480;9.806;2023-04-06T08:43:40;6.75;;;4.90;;
19347;SDS011;9810;52.480;9.806;2023-04-06T08:46:10;5.05;;;4.55;;
19347;SDS011;9810;52.480;9.806;2023-04-06T08:48:38;6.35;;;4.97;;
19347;SDS011;9810;52.480;9.806;2023-04-06T08:51:09;5.63;;;4.97;;
19347;SDS011;9810;52.480;9.806;2023-04-06T08:53:38;7.65;;;5.05;;
19347;SDS011;9810;52.480;9.806;2023-04-06T08:56:05;7.30;;;4.43;;
19347;SDS011;9810;52.480;9.806;2023-04-06T08:58:37;5.32;;;4.82;;
19347;SDS011;9810;52.480;9.806;2023-04-06T09:01:06;5.72;;;4.97;;
19347;SDS011;9810;52.480;9.806;2023-04-06T09:03:37;5.32;;;4.82;;
19347;SDS011;9810;52.480;9.806;2023-04-06T09:06:05;5.18;;;4.68;;
19347;SDS011;9810;52.480;9.806;2023-04-06T09:08:35;5.80;;;5.20;;
19347;SDS011;9810;52.480;9.806;2023-04-06T09:11:05;8.93;;;5.22;;
19347;SDS011;9810;52.480;9.806;2023-04-06T09:13:43;6.10;;;5.07;;
19347;SDS011;9810;52.480;9.806;2023-04-06T09:16:12;7.80;;;5.82;;
19347;SDS011;9810;52.480;9.806;2023-04-06T09:18:39;4.95;;;4.45;;
19347;SDS011;9810;52.480;9.806;2023-04-06T09:21:07;6.05;;;5.10;;
19347;SDS011;9810;52.480;9.806;2023-04-06T09:23:37;6.80;;;4.68;;
19347;SDS011;9810;52.480;9.806;2023-04-06T09:26:09;5.03;;;4.47;;
19347;SDS011;9810;52.480;9.806;2023-04-06T09:28:41;7.78;;;4.85;;
19347;SDS011;9810;52.480;9.806;2023-04-06T09:31:12;7.68;;;5.60;;
19347;SDS011;9810;52.480;9.806;2023-04-06T09:33:40;7.55;;;5.53;;
19347;SDS011;9810;52.480;9.806;2023-04-06T09:36:08;11.52;;;6.13;;
19347;SDS011;9810;52.480;9.806;2023-04-06T09:38:38;6.15;;;5.53;;
19347;SDS011;9810;52.480;9.806;2023-04-06T09:41:20;7.07;;;5.38;;
19347;SDS011;9810;52.480;9.806;2023-04-06T09:43:49;6.43;;;5.20;;
19347;SDS011;9810;52.480;9.806;2023-04-06T09:46:17;9.30;;;5.43;;
19347;SDS011;9810;52.480;9.806;2023-04-06T09:48:47;8.15;;;6.03;;
19347;SDS011;9810;52.480;9.806;2023-04-06T09:51:16;6.72;;;5.40;;
19347;SDS011;9810;52.480;9.806;2023-04-06T09:53:48;8.05;;;6.03;;
19347;SDS011;9810;52.480;9.806;2023-04-06T09:56:23;6.18;;;5.57;;
19347;SDS011;9810;52.480;9.806;2023-04-06T09:58:54;6.85;;;5.38;;
19347;SDS011;9810;52.480;9.806;2023-04-06T10:01:29;11.15;;;6.40;;
19347;SDS011;9810;52.480;9.806;2023-04-06T10:04:01;5.82;;;5.20;;
19347;SDS011;9810;52.480;9.806;2023-04-06T10:06:37;6.28;;;5.55;;
19347;SDS011;9810;52.480;9.806;2023-04-06T10:09:07;9.95;;;6.07;;
19347;SDS011;9810;52.480;9.806;2023-04-06T10:11:36;11.25;;;5.95;;
19347;SDS011;9810;52.480;9.806;2023-04-06T10:14:04;10.13;;;5.53;;
19347;SDS011;9810;52.480;9.806;2023-04-06T10:16:32;9.15;;;6.00;;
19347;SDS011;9810;52.480;9.806;2023-04-06T10:19:02;6.72;;;5.43;;
19347;SDS011;9810;52.480;9.806;2023-04-06T10:21:36;9.93;;;5.60;;
19347;SDS011;9810;52.480;9.806;2023-04-06T10:24:08;7.32;;;6.20;;
19347;SDS011;9810;52.480;9.806;2023-04-06T10:26:37;8.50;;;5.88;;
19347;SDS011;9810;52.480;9.806;2023-04-06T10:29:05;9.55;;;6.13;;
19347;SDS011;9810;52.480;9.806;2023-04-06T10:31:33;8.77;;;6.53;;
19347;SDS011;9810;52.480;9.806;2023-04-06T10:34:06;11.90;;;6.75;;
19347;SDS011;9810;52.480;9.806;2023-04-06T10:36:34;10.13;;;8.07;;
19347;SDS011;9810;52.480;9.806;2023-04-06T10:39:02;9.48;;;6.35;;
19347;SDS011;9810;52.480;9.806;2023-04-06T10:41:33;7.65;;;5.85;;
19347;SDS011;9810;52.480;9.806;2023-04-06T10:44:01;10.30;;;6.35;;
19347;SDS011;9810;52.480;9.806;2023-04-06T10:46:29;8.15;;;6.35;;
19347;SDS011;9810;52.480;9.806;2023-04-06T10:48:57;10.13;;;6.97;;
19347;SDS011;9810;52.480;9.806;2023-04-06T10:51:37;9.18;;;6.47;;
19347;SDS011;9810;52.480;9.806;2023-04-06T10:54:06;7.13;;;6.43;;
19347;SDS011;9810;52.480;9.806;2023-04-06T10:56:36;9.88;;;6.40;;
19347;SDS011;9810;52.480;9.806;2023-04-06T10:59:05;6.18;;;5.57;;
19347;SDS011;9810;52.480;9.806;2023-04-06T11:01:32;7.57;;;6.78;;
19347;SDS011;9810;52.480;9.806;2023-04-06T11:04:00;11.13;;;6.60;;
19347;SDS011;9810;52.480;9.806;2023-04-06T11:06:28;7.47;;;5.95;;
19347;SDS011;9810;52.480;9.806;2023-04-06T11:08:57;10.35;;;6.57;;
19347;SDS011;9810;52.480;9.806;2023-04-06T11:11:25;8.55;;;6.35;;
19347;SDS011;9810;52.480;9.806;2023-04-06T11:13:55;6.57;;;5.32;;
19347;SDS011;9810;52.480;9.806;2023-04-06T11:16:24;7.30;;;5.50;;
19347;SDS011;9810;52.480;9.806;2023-04-06T11:18:53;11.23;;;6.33;;
19347;SDS011;9810;52.480;9.806;2023-04-06T11:21:31;11.83;;;7.03;;
19347;SDS011;9810;52.480;9.806;2023-04-06T11:24:04;7.47;;;5.63;;
19347;SDS011;9810;52.480;9.806;2023-04-06T11:26:38;9.43;;;5.40;;
19347;SDS011;9810;52.480;9.806;2023-04-06T11:29:12;8.17;;;5.47;;
19347;SDS011;9810;52.480;9.806;2023-04-06T11:31:41;9.07;;;5.50;;
19347;SDS011;9810;52.480;9.806;2023-04-06T11:34:20;11.23;;;5.43;;
19347;SDS011;9810;52.480;9.806;2023-04-06T11:36:49;9.20;;;5.70;;
19347;SDS011;9810;52.480;9.806;2023-04-06T11:39:22;9.07;;;6.20;;
19347;SDS011;9810;52.480;9.806;2023-04-06T11:41:52;9.00;;;6.20;;
19347;SDS011;9810;52.480;9.806;2023-04-06T11:44:30;8.80;;;5.70;;
19347;SDS011;9810;52.480;9.806;2023-04-06T11:47:00;7.20;;;5.70;;
19347;SDS011;9810;52.480;9.806;2023-04-06T11:49:28;10.67;;;5.83;;
19347;SDS011;9810;52.480;9.806;2023-04-06T11:51:55;7.73;;;5.23;;
19347;SDS011;9810;52.480;9.806;2023-04-06T11:54:30;13.23;;;5.70;;
19347;SDS011;9810;52.480;9.806;2023-04-06T11:56:58;8.40;;;5.93;;
19347;SDS011;9810;52.480;9.806;2023-04-06T11:59:27;8.90;;;5.50;;
19347;SDS011;9810;52.480;9.806;2023-04-06T12:01:56;7.83;;;6.47;;
19347;SDS011;9810;52.480;9.806;2023-04-06T12:04:24;9.47;;;5.87;;
19347;SDS011;9810;52.480;9.806;2023-04-06T12:06:52;9.50;;;6.33;;
19347;SDS011;9810;52.480;9.806;2023-04-06T12:09:19;11.97;;;5.93;;
19347;SDS011;9810;52.480;9.806;2023-04-06T12:11:46;10.33;;;5.73;;
19347;SDS011;9810;52.480;9.806;2023-04-06T12:14:14;12.23;;;6.60;;
19347;SDS011;9810;52.480;9.806;2023-04-06T12:16:42;9.57;;;6.30;;
19347;SDS011;9810;52.480;9.806;2023-04-06T12:19:11;12.60;;;6.30;;
19347;SDS011;9810;52.480;9.806;2023-04-06T12:21:38;8.90;;;6.87;;
19347;SDS011;9810;52.480;9.806;2023-04-06T12:24:07;9.33;;;6.37;;
19347;SDS011;9810;52.480;9.806;2023-04-06T12:26:34;12.13;;;6.30;;
19347;SDS011;9810;52.480;9.806;2023-04-06T12:29:02;11.40;;;7.17;;
19347;SDS011;9810;52.480;9.806;2023-04-06T12:31:32;8.83;;;5.83;;
19347;SDS011;9810;52.480;9.806;2023-04-06T12:34:01;9.67;;;6.27;;
19347;SDS011;9810;52.480;9.806;2023-04-06T12:36:31;10.37;;;6.47;;
19347;SDS011;9810;52.480;9.806;2023-04-06T12:38:59;11.00;;;6.63;;
19347;SDS011;9810;52.480;9.806;2023-04-06T12:41:27;8.97;;;6.53;;
19347;SDS011;9810;52.480;9.806;2023-04-06T12:43:55;8.00;;;6.17;;
19347;SDS011;9810;52.480;9.806;2023-04-06T12:46:24;11.30;;;6.23;;
19347;SDS011;9810;52.480;9.806;2023-04-06T12:48:52;10.00;;;6.13;;
19347;SDS011;9810;52.480;9.806;2023-04-06T12:51:20;9.63;;;6.77;;
19347;SDS011;9810;52.480;9.806;2023-04-06T12:53:50;11.20;;;7.03;;
19347;SDS011;9810;52.480;9.806;2023-04-06T12:56:17;10.63;;;6.73;;
19347;SDS011;9810;52.480;9.806;2023-04-06T12:58:46;9.03;;;6.30;;
19347;SDS011;9810;52.480;9.806;2023-04-06T13:01:13;12.83;;;6.50;;
19347;SDS011;9810;52.480;9.806;2023-04-06T13:03:41;10.80;;;6.50;;
19347;SDS011;9810;52.480;9.806;2023-04-06T13:06:09;11.50;;;6.80;;
19347;SDS011;9810;52.480;9.806;2023-04-06T13:08:38;11.70;;;6.37;;
19347;SDS011;9810;52.480;9.806;2023-04-06T13:11:07;8.90;;;6.33;;
19347;SDS011;9810;52.480;9.806;2023-04-06T13:13:35;10.27;;;6.50;;
19347;SDS011;9810;52.480;9.806;2023-04-06T13:16:04;12.27;;;6.40;;
19347;SDS011;9810;52.480;9.806;2023-04-06T13:18:33;10.97;;;6.27;;
19347;SDS011;9810;52.480;9.806;2023-04-06T13:21:03;12.50;;;6.53;;
19347;SDS011;9810;52.480;9.806;2023-04-06T13:23:31;9.37;;;5.90;;
19347;SDS011;9810;52.480;9.806;2023-04-06T13:25:59;10.07;;;6.03;;
19347;SDS011;9810;52.480;9.806;2023-04-06T13:28:30;13.10;;;6.00;;
19347;SDS011;9810;52.480;9.806;2023-04-06T13:30:58;8.90;;;6.10;;
19347;SDS011;9810;52.480;9.806;2023-04-06T13:33:26;8.67;;;6.17;;
19347;SDS011;9810;52.480;9.806;2023-04-06T13:35:53;9.30;;;6.03;;
19347;SDS011;9810;52.480;9.806;2023-04-06T13:38:21;11.17;;;6.80;;
19347;SDS011;9810;52.480;9.806;2023-04-06T13:40:49;12.60;;;7.03;;
19347;SDS011;9810;52.480;9.806;2023-04-06T13:43:16;8.80;;;5.30;;
19347;SDS011;9810;52.480;9.806;2023-04-06T13:45:49;11.33;;;6.33;;
19347;SDS011;9810;52.480;9.806;2023-04-06T13:48:17;9.87;;;6.83;;
19347;SDS011;9810;52.480;9.806;2023-04-06T13:50:44;11.73;;;6.53;;
19347;SDS011;9810;52.480;9.806;2023-04-06T13:53:12;9.67;;;7.10;;
19347;SDS011;9810;52.480;9.806;2023-04-06T13:55:40;10.90;;;7.13;;
19347;SDS011;9810;52.480;9.806;2023-04-06T13:58:07;10.40;;;7.80;;
19347;SDS011;9810;52.480;9.806;2023-04-06T14:00:35;11.30;;;6.70;;
19347;SDS011;9810;52.480;9.806;2023-04-06T14:03:05;12.00;;;6.50;;
19347;SDS011;9810;52.480;9.806;2023-04-06T14:05:32;11.27;;;7.00;;
19347;SDS011;9810;52.480;9.806;2023-04-06T14:08:00;11.87;;;8.07;;
19347;SDS011;9810;52.480;9.806;2023-04-06T14:10:28;10.07;;;7.07;;
19347;SDS011;9810;52.480;9.806;2023-04-06T14:12:55;11.73;;;7.63;;
19347;SDS011;9810;52.480;9.806;2023-04-06T14:15:23;10.93;;;6.50;;
19347;SDS011;9810;52.480;9.806;2023-04-06T14:17:50;12.17;;;7.30;;
19347;SDS011;9810;52.480;9.806;2023-04-06T14:20:19;10.07;;;7.38;;
19347;SDS011;9810;52.480;9.806;2023-04-06T14:22:47;9.27;;;6.63;;
19347;SDS011;9810;52.480;9.806;2023-04-06T14:25:17;9.57;;;6.07;;
19347;SDS011;9810;52.480;9.806;2023-04-06T14:27:45;10.40;;;6.67;;
19347;SDS011;9810;52.480;9.806;2023-04-06T14:30:12;9.27;;;6.60;;
19347;SDS011;9810;52.480;9.806;2023-04-06T14:32:41;11.13;;;7.23;;
19347;SDS011;9810;52.480;9.806;2023-04-06T14:35:08;9.87;;;6.37;;
19347;SDS011;9810;52.480;9.806;2023-04-06T14:37:38;12.10;;;6.87;;
19347;SDS011;9810;52.480;9.806;2023-04-06T14:40:06;12.97;;;8.30;;
19347;SDS011;9810;52.480;9.806;2023-04-06T14:42:35;10.33;;;7.10;;
19347;SDS011;9810;52.480;9.806;2023-04-06T14:45:02;11.07;;;5.93;;
19347;SDS011;9810;52.480;9.806;2023-04-06T14:47:31;11.57;;;7.00;;
19347;SDS011;9810;52.480;9.806;2023-04-06T14:49:58;12.10;;;7.20;;
19347;SDS011;9810;52.480;9.806;2023-04-06T14:52:26;22.50;;;7.20;;
19347;SDS011;9810;52.480;9.806;2023-04-06T14:54:55;11.70;;;5.83;;
19347;SDS011;9810;52.480;9.806;2023-04-06T14:57:22;10.93;;;6.53;;
19347;SDS011;9810;52.480;9.806;2023-04-06T14:59:52;13.90;;;6.83;;